createdAt,value
2022-09-05T00:01:27.601Z,12.38
2022-09-05T00:06:06.292Z,13.38
2022-09-05T00:10:44.784Z,14.57
2022-09-05T00:15:52.921Z,13.00
2022-09-05T00:24:27.971Z,13.13
2022-09-05T00:25:30.998Z,13.85
2022-09-05T00:31:50.855Z,14.30
2022-09-05T00:35:06.768Z,14.43
2022-09-05T00:39:31.738Z,14.68
2022-09-05T00:43:51.227Z,15.00
2022-09-05T00:48:37.651Z,14.63
2022-09-05T00:53:06.662Z,13.48
2022-09-05T00:57:42.639Z,13.85
2022-09-05T01:02:11.555Z,12.68
2022-09-05T01:06:59.299Z,13.40
2022-09-05T01:11:28.331Z,14.27
2022-09-05T01:15:56.174Z,14.23
2022-09-05T01:20:50.724Z,14.68
2022-09-05T01:25:52.495Z,16.50
2022-09-05T01:30:37.484Z,15.00
2022-09-05T01:35:00.456Z,14.48
2022-09-05T01:40:11.818Z,14.60
2022-09-05T01:44:21.818Z,16.48
2022-09-05T01:48:48.095Z,16.90
2022-09-05T01:53:27.312Z,17.02
2022-09-05T01:58:02.611Z,16.77
2022-09-05T02:02:50.229Z,15.45
2022-09-05T02:07:45.698Z,17.13
2022-09-05T02:12:14.482Z,19.17
2022-09-05T02:16:44.520Z,19.10
2022-09-05T02:21:05.041Z,18.83
2022-09-05T02:26:02.876Z,20.13
2022-09-05T02:30:24.455Z,21.73
2022-09-05T02:35:14.765Z,20.95
2022-09-05T02:45:17.493Z,18.67
2022-09-05T02:51:42.350Z,19.73
2022-09-05T02:57:35.596Z,21.13
2022-09-05T02:59:12.214Z,19.45
2022-09-05T03:03:49.012Z,20.15
2022-09-05T03:08:24.018Z,19.77
2022-09-05T03:13:07.371Z,24.40
2022-09-05T03:17:57.444Z,22.08
2022-09-05T03:22:56.609Z,19.63
2022-09-05T03:27:47.777Z,19.52
2022-09-05T03:32:18.203Z,19.92
2022-09-05T03:37:01.329Z,22.73
2022-09-05T03:41:40.598Z,25.08
2022-09-05T03:46:48.920Z,26.45
2022-09-05T03:57:12.366Z,28.73
2022-09-05T03:57:27.647Z,28.58
2022-09-05T04:03:30.820Z,22.65
2022-09-05T04:08:15.900Z,24.33
2022-09-05T04:11:20.098Z,22.52
2022-09-05T04:15:42.912Z,25.50
2022-09-05T04:20:42.714Z,26.00
2022-09-05T04:25:09.259Z,27.63
2022-09-05T04:29:42.575Z,24.02
2022-09-05T04:34:22.918Z,24.48
2022-09-05T04:38:42.929Z,25.25
2022-09-05T04:43:18.484Z,25.58
2022-09-05T04:47:43.174Z,27.30
2022-09-05T04:52:42.360Z,24.83
2022-09-05T04:57:13.867Z,27.83
2022-09-05T05:06:05.145Z,27.67
2022-09-05T05:06:38.328Z,22.27
2022-09-05T05:16:00.343Z,40.55
2022-09-05T05:18:11.987Z,25.80
2022-09-05T05:21:05.794Z,24.35
2022-09-05T05:25:23.565Z,25.70
2022-09-05T05:29:52.751Z,23.13
2022-09-05T05:34:27.179Z,29.00
2022-09-05T05:38:53.564Z,24.13
2022-09-05T05:43:16.160Z,25.58
2022-09-05T05:47:43.692Z,23.02
2022-09-05T05:52:30.064Z,23.13
2022-09-05T05:57:16.232Z,20.73
2022-09-05T06:02:04.565Z,18.77
2022-09-05T06:06:43.782Z,18.13
2022-09-05T06:14:57.127Z,21.30
2022-09-05T06:16:33.018Z,22.98
2022-09-05T06:22:07.672Z,21.85
2022-09-05T06:26:13.865Z,23.67
2022-09-05T06:31:02.115Z,23.88
2022-09-05T06:35:36.370Z,20.73
2022-09-05T06:40:21.696Z,20.67
2022-09-05T06:45:27.807Z,19.33
2022-09-05T06:50:24.491Z,19.52
2022-09-05T06:59:35.717Z,16.67
2022-09-05T07:04:49.359Z,16.95
2022-09-05T07:09:28.601Z,15.77
2022-09-05T07:14:20.012Z,15.30
2022-09-05T07:19:03.037Z,13.82
2022-09-05T07:24:09.143Z,12.05
2022-09-05T07:28:29.705Z,12.05
2022-09-05T07:32:59.213Z,11.80
2022-09-05T07:37:43.969Z,11.65
2022-09-05T07:42:06.763Z,13.90
2022-09-05T07:46:31.771Z,11.93
2022-09-05T07:54:43.933Z,9.80
2022-09-05T07:57:02.082Z,9.65
2022-09-05T08:00:26.762Z,9.18
2022-09-05T08:04:47.169Z,9.57
2022-09-05T08:10:05.323Z,8.30
2022-09-05T08:14:43.752Z,7.47
2022-09-05T08:19:09.601Z,8.85
2022-09-05T08:24:13.729Z,7.80
2022-09-05T08:28:49.124Z,8.02
2022-09-05T08:33:15.689Z,7.80
2022-09-05T08:37:33.885Z,10.70
2022-09-05T08:42:16.858Z,9.38
2022-09-05T08:46:49.638Z,6.95
2022-09-05T08:51:26.231Z,7.13
2022-09-05T08:56:11.273Z,5.13
2022-09-05T09:00:44.401Z,6.00
2022-09-05T09:06:02.356Z,7.95
2022-09-05T09:10:26.756Z,5.80
2022-09-05T09:14:52.867Z,7.15
2022-09-05T09:19:19.835Z,6.50
2022-09-05T09:24:17.864Z,6.78
2022-09-05T09:29:09.806Z,5.27
2022-09-05T09:33:41.536Z,5.38
2022-09-05T09:38:25.950Z,6.07
2022-09-05T09:42:50.911Z,6.05
2022-09-05T09:47:15.071Z,5.32
2022-09-05T09:51:37.923Z,5.50
2022-09-05T09:56:34.375Z,4.72
2022-09-05T10:01:35.975Z,7.13
2022-09-05T10:10:45.543Z,3.50
2022-09-05T10:16:27.131Z,3.67
2022-09-05T10:21:18.412Z,4.53
2022-09-05T10:26:14.510Z,4.13
2022-09-05T10:32:58.075Z,4.00
2022-09-05T10:35:34.530Z,6.32
2022-09-05T10:40:03.974Z,5.38
2022-09-05T10:44:55.075Z,4.55
2022-09-05T10:49:15.027Z,3.50
2022-09-05T10:53:41.462Z,3.70
2022-09-05T11:02:15.702Z,3.40
2022-09-05T11:03:44.543Z,3.30
2022-09-05T11:08:11.167Z,5.10
2022-09-05T11:12:40.669Z,4.75
2022-09-05T11:17:30.223Z,3.50
2022-09-05T11:22:22.124Z,4.22
2022-09-05T11:26:52.930Z,4.95
2022-09-05T11:31:33.213Z,3.10
2022-09-05T11:40:02.701Z,5.30
2022-09-05T11:41:30.887Z,7.25
2022-09-05T11:46:20.273Z,4.57
2022-09-05T11:51:06.690Z,5.32
2022-09-05T11:55:59.932Z,3.22
2022-09-05T12:00:34.483Z,5.22
2022-09-05T12:05:50.018Z,3.50
2022-09-05T12:10:09.829Z,4.13
2022-09-05T12:15:26.062Z,4.57
2022-09-05T12:20:06.703Z,3.53
2022-09-05T12:25:24.733Z,4.10
2022-09-05T12:29:33.431Z,3.90
2022-09-05T12:36:01.711Z,5.25
2022-09-05T12:40:54.319Z,3.15
2022-09-05T12:43:46.298Z,5.03
2022-09-05T12:48:13.716Z,3.33
2022-09-05T12:52:32.367Z,3.35
2022-09-05T13:01:06.549Z,3.30
2022-09-05T13:03:14.547Z,6.30
2022-09-05T13:06:25.336Z,7.80
2022-09-05T13:14:46.508Z,5.95
2022-09-05T13:19:51.724Z,4.78
2022-09-05T13:24:14.411Z,6.03
2022-09-05T13:29:10.102Z,5.07
2022-09-05T13:38:13.077Z,4.50
2022-09-05T13:38:48.333Z,4.03
2022-09-05T13:43:07.013Z,4.22
2022-09-05T13:47:51.021Z,3.60
2022-09-05T13:52:25.849Z,4.22
2022-09-05T13:56:53.865Z,4.43
2022-09-05T14:01:40.238Z,4.80
2022-09-05T14:06:47.783Z,6.45
2022-09-05T14:16:08.271Z,3.58
2022-09-05T14:20:53.150Z,5.70
2022-09-05T14:25:34.440Z,3.40
2022-09-05T14:29:53.999Z,4.13
2022-09-05T14:37:48.158Z,3.42
2022-09-05T14:39:46.566Z,3.85
2022-09-05T14:44:48.529Z,5.22
2022-09-05T14:49:54.017Z,4.50
2022-09-05T15:02:53.586Z,4.20
2022-09-05T15:12:14.876Z,5.60
2022-09-05T15:13:17.886Z,4.43
2022-09-05T15:17:37.133Z,7.43
2022-09-05T15:21:54.385Z,4.97
2022-09-05T15:26:25.683Z,6.45
2022-09-05T15:30:56.640Z,4.90
2022-09-05T15:35:19.712Z,4.85
2022-09-05T15:39:37.137Z,5.72
2022-09-05T15:44:09.470Z,4.78
2022-09-05T15:48:27.963Z,6.80
2022-09-05T15:52:55.661Z,5.30
2022-09-05T15:57:24.707Z,5.20
2022-09-05T16:01:59.601Z,6.72
2022-09-05T16:10:30.494Z,7.55
2022-09-05T16:12:03.041Z,8.18
2022-09-05T16:23:18.294Z,7.80
2022-09-05T16:23:24.296Z,6.10
2022-09-05T16:25:24.914Z,8.55
2022-09-05T16:29:46.308Z,7.28
2022-09-05T16:34:11.735Z,7.32
2022-09-05T16:38:48.887Z,7.15
2022-09-05T16:43:20.015Z,9.13
2022-09-05T16:48:23.446Z,9.68
2022-09-05T16:52:54.040Z,8.68
2022-09-05T16:57:30.382Z,8.48
2022-09-05T17:02:07.516Z,8.93
2022-09-05T17:06:41.396Z,10.18
2022-09-05T17:11:13.803Z,8.20
2022-09-05T17:15:52.010Z,8.00
2022-09-05T17:20:14.521Z,8.10
2022-09-05T17:29:23.381Z,9.40
2022-09-05T17:34:41.266Z,8.98
2022-09-05T17:39:10.353Z,8.65
2022-09-05T17:43:35.014Z,8.73
2022-09-05T17:47:57.321Z,11.57
2022-09-05T17:52:19.700Z,10.05
2022-09-05T17:56:48.076Z,8.00
2022-09-05T18:01:16.949Z,10.82
2022-09-05T18:05:56.921Z,9.20
2022-09-05T18:10:27.411Z,9.02
2022-09-05T18:14:55.486Z,10.23
2022-09-05T18:19:57.940Z,10.40
2022-09-05T18:24:33.633Z,8.60
2022-09-05T18:28:55.223Z,8.98
2022-09-05T18:33:54.614Z,9.18
2022-09-05T18:38:00.054Z,9.10
2022-09-05T18:42:25.939Z,9.55
2022-09-05T18:46:51.634Z,9.35
2022-09-05T18:51:15.961Z,9.80
2022-09-05T18:56:13.445Z,10.00
2022-09-05T19:00:14.074Z,10.02
2022-09-05T19:04:43.974Z,9.48
2022-09-05T19:09:07.466Z,13.93
2022-09-05T19:13:33.939Z,10.40
2022-09-05T19:17:59.911Z,10.10
2022-09-05T19:23:10.443Z,11.23
2022-09-05T19:29:40.435Z,11.35
2022-09-05T19:36:50.139Z,9.88
2022-09-05T19:47:30.456Z,9.98
2022-09-05T19:47:46.997Z,10.80
2022-09-05T19:51:16.728Z,10.82
2022-09-05T19:55:37.633Z,10.38
2022-09-05T20:00:01.841Z,10.30
2022-09-05T20:04:20.632Z,11.10
2022-09-05T20:12:55.865Z,9.98
2022-09-05T20:21:39.621Z,11.38
2022-09-05T20:25:58.221Z,10.32
2022-09-05T20:30:25.292Z,10.98
2022-09-05T20:37:00.873Z,11.77
2022-09-05T20:43:23.234Z,11.18
2022-09-05T20:45:01.065Z,10.98
2022-09-05T20:54:16.795Z,10.45
2022-09-05T20:54:25.732Z,11.10
2022-09-05T20:58:39.010Z,11.35
2022-09-05T21:03:01.457Z,11.77
2022-09-05T21:07:35.715Z,11.75
2022-09-05T21:11:56.057Z,11.10
2022-09-05T21:16:15.733Z,10.98
2022-09-05T21:20:33.052Z,11.68
2022-09-05T21:25:41.376Z,11.10
2022-09-05T21:30:20.894Z,12.18
2022-09-05T21:34:45.233Z,10.98
2022-09-05T21:39:02.938Z,11.07
2022-09-05T21:47:35.579Z,11.50
2022-09-05T21:47:57.589Z,14.25
2022-09-05T21:52:15.699Z,14.07
2022-09-05T21:59:26.134Z,13.73
2022-09-05T22:01:14.225Z,13.43
2022-09-05T22:05:34.228Z,15.65
2022-09-05T22:09:51.366Z,18.15
2022-09-05T22:14:09.186Z,17.00
2022-09-05T22:18:26.453Z,14.00
2022-09-05T22:22:56.083Z,13.07
2022-09-05T22:27:14.849Z,14.40
2022-09-05T22:31:32.540Z,13.70
2022-09-05T22:35:49.846Z,16.75
2022-09-05T22:40:08.102Z,12.70
2022-09-05T22:44:25.400Z,12.35
2022-09-05T22:48:42.613Z,12.48
2022-09-05T22:53:00.343Z,11.63
2022-09-05T22:57:17.588Z,12.57
2022-09-05T23:01:34.977Z,12.23
2022-09-05T23:05:52.163Z,12.23
2022-09-05T23:10:09.591Z,11.60
2022-09-05T23:14:26.744Z,12.27
2022-09-05T23:18:43.904Z,12.05
2022-09-05T23:23:07.436Z,13.35
2022-09-05T23:27:24.617Z,12.15
2022-09-05T23:31:42.019Z,13.63
2022-09-05T23:36:01.025Z,13.10
2022-09-05T23:44:37.222Z,12.77
2022-09-05T23:48:54.457Z,12.07
2022-09-05T23:53:11.688Z,12.95
2022-09-05T23:57:28.803Z,12.93
